Pagina principală
METAR-TAF:

METAR-TAF

Aeroporturi :

Macas, Ecuador

Latitudine: 02-17-57-S, longitudine: 078-07-15-W, elevație: 1052 m

Observații meteo curente

Raportul a fost făcut în urmă cu 42 de minute, la 18:00 UTC
Vânt 4 kt de la Est/Nord-est
Temperatură 28°C
Umiditate 55%
Presiune 1016 hPa
Vizibilitate de 10 km sau mai mult
Nori împrăștiați la o înălțime de 2600 picior
Nori împrăștiați la o înălțime de 11000 picior

METAR: SEMC 181800Z 06004KT 9999 SCT026 SCT110 28/18 Q1016 RMK A3001

Ora: 13:42 (18:42 UTC)


TAF: lipsă

Observații și prognoze meteo pentru peste 4.000 de aeroporturi (rapoarte METAR și TAF).

Stațiile disponibile sunt reprezentate pe hartă prin puncte galbene și roșii.

Țineți indicatorul mouse-ului pe punctul dorit pentru a vedea denumirea stației.

Apoi, faceți clic pentru a vedea observațiile și prognozele meteorologice.

Pentru a schimba harta: Pentru mărire, faceți clic pe butoanele verzi cu cruce neagră; pentru micșorare, pe butonul verde cu o liniuță; pentru hărți învecinate, pe săgețile verzi.


METAR-TAF: